Tiempo atmosférico en la estación meteorológica de Carrión De Los Condes, Palencia (830 m.)



Fecha
DESCASC
Temp. máxima en grados centígrados (hora)
DESCASC
Temp. mínima en grados centígrados (hora)
DESCASC
Temp. media en grados centígrados
DESCASC
Racha de viento máxima en m/sg (hora)
DESCASC
Velocidad máxima media en intervalos de 10 minutos(hora)
DESCASC
Precipitaciones diarias en mm
DESCASC
Precipitaciones de 00:00 a 06:00 en mm
DESCASC
Precipitaciones de 06:00 a 12:00 en mm
DESCASC
Precipitaciones de 12:00 a 18:00 en mm
DESCASC
Precipitaciones de 18:00 a 24:00 en mm
DESCASC
13-10-2019 22.9 (16:50) 9.5 (23:59) 16.2 11.39 (14:10) 5 (14:20) 0 0 0 0 0
12-10-2019 26.5 (14:50) 10.9 (08:50) 18.7 18.61 (15:00) 7.5 (17:30) 0 0 0 0 0
10-10-2019 22.1 (17:10) 5.4 (00:00) 13.8 7.22 (11:40) 3.33 (11:50) 0 0 0 0 0
09-10-2019 21.1 (16:30) 9.7 (00:00) 15.4 9.17 (19:10) 3.89 (20:20) 0 0 0 0 0
08-10-2019 26.7 (16:50) 6.3 (00:00) 16.5 8.61 (14:50) 3.06 (20:50) 0 0 0 0 0
07-10-2019 25.2 (17:00) 6.5 (00:00) 15.9 4.44 (12:50) 1.67 (04:40) 0 0 0 0 0
06-10-2019 22.7 (16:40) 7.4 (00:00) 15.1 6.94 (22:00) 3.33 (22:00) 0 0 0 0 0
05-10-2019 24.1 (17:30) 10.1 (05:40) 17.1 5.83 (16:20) 2.5 (03:30) 0 0 0 0 0
04-10-2019 24.1 (17:00) 6.3 (00:00) 15.2 6.67 (12:50) 2.5 (12:30) 0 0 0 0 0
03-10-2019 24.1 (17:10) 5.1 (00:00) 14.6 7.5 (13:30) 3.06 (13:30) 0 0 0 0 0
02-10-2019 21.3 (17:00) 6 (00:00) 13.6 6.67 (12:30) 2.78 (11:40) 0 0 0 0 0
01-10-2019 23.6 (16:50) 9.1 (00:00) 16.4 8.61 (15:30) 2.5 (14:20) 0 0 0 0 0
30-09-2019 25.9 (17:40) 8.1 (00:00) 17 6.94 (15:40) 3.06 (13:50) 0 0 0 0 0
29-09-2019 26.5 (17:20) 5.1 (00:00) 15.8 7.78 (15:10) 2.5 (15:00) 0 0 0 0 0
28-09-2019 24 (17:50) 9.4 (00:00) 16.7 5.83 (14:10) 2.5 (14:10) 0 0 0 0 0
27-09-2019 24.5 (16:30) 4.5 (00:00) 14.5 7.22 (16:30) 1.94 (16:40) 0 0 0 0 0
26-09-2019 24.4 (16:30) 7.2 (00:00) 15.8 7.22 (13:00) 2.5 (12:40) 0 0 0 0 0
25-09-2019 20.6 (17:20) 7.4 (00:00) 14 7.22 (17:20) 2.22 (14:50) 0 0 0 0 0
24-09-2019 23.2 (15:40) 10.6 (00:00) 16.9 11.39 (17:20) 3.89 (17:40) 0 0 0 0 0
23-09-2019 20.1 (17:40) 7.3 (00:00) 13.7 13.89 (10:50) 3.89 (13:50) 0 0 0 0 0
22-09-2019 19.8 (17:40) 9.4 (00:00) 14.6 10.28 (01:00) 4.17 (00:50) 1.8 1.8 0 0 0
21-09-2019 18.4 (12:00) 14 (00:00) 16.2 16.67 (10:20) 5.28 (13:30) 4.4 2.8 0 1.2 0.4
20-09-2019 27 (16:20) 13.5 (00:00) 20.3 9.44 (16:20) 3.89 (19:20) 1.4 0 0 0 1.4
19-09-2019 25.5 (17:10) 10.8 (00:00) 18.2 5.83 (14:10) 2.5 (08:00) 0 0 0 0 0
18-09-2019 24.8 (15:50) 13.1 (00:00) 18.9 8.06 (04:10) 4.17 (04:10) 15.4 15.4 0 0 0
17-09-2019 28.6 (16:30) 14.7 (00:00) 21.7 16.94 (23:10) 4.72 (23:10) 2.4 0 0 0 2.4

Gráficas

Temp. máximas Temp. mínimas Temp. medias Precipitaciones Rachas de viento máximas Velocidades máximas media en intervalos de 10 minutos

Datos horarios

Fecha y hora oficial Temperatura (ºC) Velocidad del viento (km/h) Dirección del viento Racha (km/h) Dirección de racha Precipitación (mm) Presión (hPa) Tendencia (hPa) Humedad (%)
2019-10-16 23:00:00 12.4 10 Sudoeste 27 Sudoeste 0.2 922.8 0.6 84
2019-10-16 22:00:00 12.8 5 Sudoeste 16 Sudoeste 0.2 922.4 0.4 79
2019-10-16 21:00:00 13.6 4 Sudoeste 16 Oeste 0 922.8 1 74
2019-10-16 20:00:00 14.2 5 Sudoeste 23 Sur 0 922.2 0.1 66
2019-10-16 19:00:00 14.8 7 Sudoeste 32 Sudoeste 0 922 -0.7 63
2019-10-16 18:00:00 15.6 13 Sudoeste 45 Sudoeste 0 921.8 -1.4 60
2019-10-16 17:00:00 15.3 10 Sudoeste 41 Sudoeste 0 922.1 -1.7 61
2019-10-16 16:00:00 14.3 10 Sudoeste 37 Sudoeste 0 922.7 -1.3 65
2019-10-16 15:00:00 13.9 11 Sudoeste 49 Sur 0 923.2 -1 68
2019-10-16 14:00:00 14.5 17 Sudoeste 43 Sur 0 923.8 -0.5 63
2019-10-16 13:00:00 13.5 14 Sudoeste 45 Sudoeste 0 924 0.1 69
2019-10-16 12:00:00 12.9 18 Sudoeste 37 Sudoeste 0 924.2 0.4 69
2019-10-16 11:00:00 10.5 17 Sudoeste 46 Sudoeste 0 924.3 0.3 79
2019-10-16 10:00:00 9.7 12 Sudoeste 32 Sur 0 923.9 0.1 83
2019-10-16 09:00:00 8.9 14 Sudoeste 30 Sudoeste 0 923.8 0.1 87
2019-10-16 08:00:00 9 11 Sudoeste 24 Sur 0 924 -0.1 86
2019-10-16 07:00:00 9.1 9 Sudoeste 27 Sudoeste 0 923.8 -0.4 86
2019-10-16 06:00:00 9.2 11 Sudoeste 24 Sudoeste 0 923.7 -1 84
2019-10-16 05:00:00 8.9 11 Sudoeste 28 Sudoeste 0 924.1 -0.7 86
2019-10-16 04:00:00 8.8 9 Sudoeste 22 Oeste 0 924.2 -0.6 86
2019-10-16 03:00:00 9.1 10 Sudoeste 24 Sudoeste 0 924.7 -0.4 86
2019-10-16 02:00:00 9.6 10 Sudoeste 27 Sudoeste 0 924.8 -0.4 85
2019-10-16 01:00:00 9.8 11 Sudoeste 24 Sudoeste 0 924.8 -0.5 85
2019-10-16 00:00:00 9.8 8 Sudoeste 18 Sudoeste 0 925.1 0 85
2019-10-15 23:00:00 9.5 5 Sudoeste 10 Sudoeste 0.2 925.2 0.2 86
2019-10-15 22:00:00 9.8 3 Sudoeste 17 Sudoeste 0 925.3 0.6 83
2019-10-15 21:00:00 10.3 5 Sudoeste 21 Sur 0 925.1 0.5 78
2019-10-15 20:00:00 10.9 9 Sudoeste 25 Sudoeste 0 925 0.3 71
2019-10-15 19:00:00 11.9 13 Sudoeste 48 Sur 0 924.7 0 67
2019-10-15 18:00:00 12.2 10 Sudoeste 30 Sudoeste 0 924.6 -0.2 64
2019-10-15 17:00:00 12.3 12 Sudoeste 34 Sudoeste 0 924.7 -0.3 60
2019-10-15 16:00:00 12.7 12 Sudoeste 30 Sudoeste 0 924.7 -0.6 56
2019-10-15 15:00:00 12.9 13 Sudoeste 33 Sudoeste 0 924.8 -0.6 59
2019-10-15 14:00:00 13.3 8 Sudoeste 32 Sudoeste 0 925 -0.7 58
2019-10-15 13:00:00 11.9 10 Sudoeste 25 Sudoeste 0 925.3 0.3 67
2019-10-15 12:00:00 10.9 13 Sudoeste 32 Sudoeste 0 925.4 1 73
2019-10-15 11:00:00 8 6 Oeste 27 Nordeste 0 925.7 1.8 83
2019-10-15 10:00:00 6.4 4 Sudoeste 18 Sudoeste 0 925 1.4 95
2019-10-15 09:00:00 3.7 3 Sudoeste 12 Oeste 0 924.4 1.1 98
2019-10-15 08:00:00 3.8 4 Sudoeste 15 Norte 0 923.9 1.1 97
2019-10-15 07:00:00 3.9 5 Sudoeste 15 Sudoeste 0 923.6 0.9 97
2019-10-15 06:00:00 3.9 5 Sudoeste 15 Oeste 0 923.3 0.8 96
2019-10-15 05:00:00 4.1 4 Sudoeste 18 Oeste 0 922.8 0.7 95
2019-10-15 04:00:00 4.5 6 Sudoeste 19 Oeste 0 922.7 1.2 89
2019-10-15 03:00:00 5 5 Sudoeste 16 Oeste 0 922.5 1.3 87
2019-10-15 02:00:00 5.2 6 Sudoeste 22 Sudoeste 0 922.1 1.6 87
2019-10-15 01:00:00 5.2 8 Sudoeste 21 Sudoeste 0 921.5 2.2 86
2019-10-15 00:00:00 5.7 6 Sudoeste 23 Sudoeste 0 921.2 2 84
2019-10-14 23:00:00 6.4 4 Sudoeste 19 Oeste 0 920.5 1.9 80
2019-10-14 22:00:00 7.8 5 Sudoeste 26 Oeste 0 919.3 1.4 79
2019-10-14 21:00:00 8 5 Sudoeste 18 Sudoeste 0 919.2 2.5 91
2019-10-14 20:00:00 8.1 7 Sudoeste 21 Sudoeste 0 918.6 1.8 84
2019-10-14 19:00:00 8.7 3 Sudoeste 36 Sudoeste 0 917.9 1.6 79
2019-10-14 18:00:00 10.7 16 Sudoeste 45 Sudoeste 0 916.7 -0.3 85
2019-10-14 17:00:00 10.2 13 Sudoeste 36 Sudoeste 3.4 916.8 0.1 87
2019-10-14 16:00:00 11.1 11 Sudoeste 49 Sudoeste 0.6 916.3 -0.8 85
2019-10-14 15:00:00 12 19 Sudoeste 42 Sur 0.2 917 0.3 80
2019-10-14 14:00:00 14.6 13 Sudoeste 49 Sudoeste 0 916.7 0.5 61
2019-10-14 13:00:00 13.7 21 Sudoeste 42 Sudoeste 0 917.1 2.5 62
2019-10-14 12:00:00 12.6 12 Sudoeste 27 Sur 0.2 916.7 2.5 75
2019-10-14 11:00:00 11.2 9 Sudoeste 59 Sudoeste 1.2 916.2 1.9 87
2019-10-14 10:00:00 14 22 Sudoeste 48 Sur 0 914.6 0.4 74
2019-10-14 09:00:00 13.4 14 Sudoeste 28 Sudoeste 0 914.2 -0.4 78
2019-10-14 08:00:00 10.8 4 Oeste 14 Sudoeste 0 914.3 -0.5 82
2019-10-14 07:00:00 10.9 2 Este 6 Sudeste 0 914.2 -1.3 81
2019-10-14 06:00:00 10.7 2 Noroeste 5 Oeste 0 914.6 -1.9 82
2019-10-14 05:00:00 10.1 2 Nordeste 5 Norte 0 914.8 -2.6 78
2019-10-14 04:00:00 9.5 0 Calma 4 Noroeste 0 915.5 -2.5 85
2019-10-14 03:00:00 9.4 2 Norte 4 Norte 0 916.5 -2.2 82
2019-10-14 02:00:00 9.4 0 Calma 4 Norte 0 917.4 -1.7 86
2019-10-14 01:00:00 8.7 2 Norte 14 Nordeste 0 918 -1 84
2019-10-14 00:00:00 9.5 0 Calma 2 Sudeste 0 918.7 -0.2 81
2019-10-13 23:00:00 11.1 0 Calma 7 Oeste 0 919.1 0.6 75
2019-10-13 22:00:00 13.5 4 Sudoeste 13 Sudoeste 0 919 0.6 66
2019-10-13 21:00:00 16 5 Sudoeste 21 Sudoeste 0 918.9 0.3 55
2019-10-13 20:00:00 18 12 Sudoeste 29 Sudoeste 0 918.5 -0.5 40
2019-10-13 19:00:00 19.9 14 Sudoeste 32 Sur 0 918.4 -0.9 38
2019-10-13 18:00:00 21.6 14 Sudoeste 37 Sudoeste 0 918.6 -1.5 41
2019-10-13 17:00:00 22.8 13 Sudoeste 38 Sudoeste 0 919 -1.7 35
2019-10-13 16:00:00 22.6 14 Sudoeste 33 Sudoeste 0 919.3 -1.6 36
2019-10-13 15:00:00 21.6 12 Sudoeste 41 Sudoeste 0 920.1 -1.4 41
2019-10-13 14:00:00 20.7 15 Sudoeste 33 Sudoeste 0 920.7 -0.5 46
2019-10-13 13:00:00 18.7 13 Sudoeste 38 Sudoeste 0 920.9 0 53
2019-10-13 12:00:00 16.8 13 Sudoeste 30 Sur 0 921.5 1.4 61
2019-10-13 11:00:00 15.7 12 Sudoeste 32 Sudoeste 0 921.2 1.4 66
2019-10-13 10:00:00 14.2 8 Sudoeste 28 Sur 0 920.9 1.2 75
2019-10-13 09:00:00 12.7 12 Sudoeste 27 Sudoeste 0 920.1 0.9 85
2019-10-13 08:00:00 12.4 4 Sudoeste 16 Sudoeste 0 919.8 0.9 84
2019-10-13 07:00:00 11.3 4 Sudoeste 11 Oeste 0 919.7 0.5 82
2019-10-13 06:00:00 12.2 2 Oeste 19 Sudoeste 0 919.2 -0.2 72
2019-10-13 05:00:00 12.5 7 Sudoeste 17 Sur 0 918.9 -0.5 70
2019-10-13 04:00:00 14.4 2 Oeste 28 Sur 0 919.2 -0.4 64
2019-10-13 03:00:00 16.3 12 Sudoeste 26 Sudoeste 0 919.4 -0.2 55
2019-10-13 02:00:00 17.6 13 Sur 30 Sudoeste 0 919.4 0 51
2019-10-13 01:00:00 18 12 Sur 30 Sur 0 919.6 0.5 51
2019-10-13 00:00:00 18.7 11 Sur 26 Sudoeste 0 919.6 0.5 47
2019-10-12 23:00:00 19.1 7 Sur 27 Sudoeste 0 919.4 0.7 46
2019-10-12 22:00:00 19 9 Sudoeste 23 Sudoeste 0 919.1 0.8 42
2019-10-12 21:00:00 20.9 10 Sudoeste 36 Sur 0 919.1 0.6 34
2019-10-12 20:00:00 22.7 17 Sudoeste 45 Sudoeste 0 918.7 -0.3 29
2019-10-12 19:00:00 24.5 19 Sudoeste 49 Sudoeste 0 918.3 -1 26
2019-10-12 18:00:00 25.6 24 Sudoeste 55 Sudoeste 0 918.5 -1.6 25
2019-10-12 17:00:00 25.4 22 Sudoeste 56 Sudoeste 0 919 -1.8 27
2019-10-12 16:00:00 25.6 19 Sudoeste 53 Sudoeste 0 919.3 -2.3 30
2019-10-12 15:00:00 25.3 25 Sudoeste 67 Sudoeste 0 920.1 -2 30
2019-10-12 14:00:00 25.8 20 Sudoeste 45 Sur 0 920.8 -1.7 31
2019-10-12 13:00:00 23.8 17 Sudoeste 35 Sudoeste 0 921.6 -0.6 43
2019-10-12 12:00:00 21.4 8 Sudoeste 31 Sudoeste 0 922.1 0.4 52
2019-10-12 11:00:00 17.9 4 Sudeste 9 Sur 0 922.5 1 72
2019-10-12 10:00:00 12.8 0 Calma 5 Noroeste 0 922.2 0.7 98
2019-10-12 09:00:00 11 0 Calma 5 Norte 0 921.7 0.3 97
2019-10-12 08:00:00 11 0 Calma 4 Sur 0 921.5 0.1 96
2019-10-12 07:00:00 11.9 0 Calma 6 Sudoeste 0 921.5 0 95
2019-10-12 06:00:00 12.9 0 Calma 4 Sur 0 921.4 -0.7 96
2019-10-12 05:00:00 12.8 0 Calma 7 Sudoeste 0 921.4 -1.1 96
2019-10-12 04:00:00 11.9 4 Sudoeste 8 Sudoeste 0 921.5 -1.3 96
2019-10-12 03:00:00 12.1 2 Noroeste 3 Noroeste 0 922.1 -0.9 94
2019-10-12 02:00:00 13 0 Calma 9 Sur 0 922.5 -0.4 86
2019-10-12 01:00:00 14 4 Sudoeste 8 Sudoeste 0 922.8 0.4 85
2019-10-12 00:00:00 15.6 3 Sur 9 Sudoeste 0 923 1.2 82
2019-10-11 23:00:00 17.3 5 Sur 16 Sudeste 0 922.9 0.9 77
2019-10-11 22:00:00 17.9 9 Sur 34 Sur 0.4 922.4 0.2 69
2019-10-11 21:00:00 17.8 0 Calma 2 Noroeste 0 921.8 -0.8 67
2019-10-11 20:00:00 19.4 0 Calma 9 Sudoeste 0 922 -1 61
2019-10-11 19:00:00 23.1 4 Sudoeste 19 Sudoeste 0 922.2 -1.4 39
2019-10-11 18:00:00 25 6 Sudoeste 32 Sudoeste 0 922.6 -1.5 34
2019-10-11 17:00:00 26.3 12 Sudoeste 32 Sudoeste 0 923 -2.2 32
2019-10-11 16:00:00 26 8 Sudoeste 29 Sudoeste 0 923.6 -2.4 32
2019-10-11 15:00:00 25.4 5 Sudoeste 26 Sur 0 924.1 -2.3 30
2019-10-11 14:00:00 23.7 6 Sur 15 Sur 0 925.2 -1.5 35
2019-10-11 13:00:00 21.1 5 Sudoeste 12 Sudoeste 0 926 -0.4 39
2019-10-11 12:00:00 18.1 3 Sudeste 10 Sur 0 926.4 0.4 49
2019-10-11 11:00:00 14.4 4 Nordeste 14 Nordeste 0 926.7 1.1 62
2019-10-11 10:00:00 8.7 0 Calma 4 Norte 0 926.4 0.9 85
2019-10-11 09:00:00 4.1 0 Calma 3 Norte 0 926 0.4 98
2019-10-11 08:00:00 4.1 2 Noroeste 3 Norte 0 925.6 0 98
2019-10-11 07:00:00 4.2 2 Noroeste 3 Noroeste 0 925.5 -0.3 97
2019-10-11 06:00:00 4.3 0 Calma 2 Noroeste 0 925.6 -0.5 96
2019-10-11 05:00:00 4.7 0 Calma 4 Noroeste 0 925.6 -0.7 96
2019-10-11 04:00:00 5.4 0 Calma 4 Norte 0 925.8 -0.7 95
2019-10-11 03:00:00 5.6 0 Calma 4 Norte 0 926.1 -0.4 93
2019-10-11 02:00:00 6.1 0 Calma 3 Noroeste 0 926.3 -0.2 87
2019-10-11 01:00:00 7 2 Oeste 4 Sudoeste 0 926.5 0.2 84
2019-10-11 00:00:00 8.2 3 Norte 7 Nordeste 0 926.5 0.6 75
2019-10-10 23:00:00 9.5 2 Nordeste 10 Nordeste 0 926.5 0.9 68
2019-10-10 22:00:00 9.5 3 Nordeste 8 Nordeste 0 926.3 0.7 71
2019-10-10 21:00:00 11.9 3 Norte 5 Noroeste 0 925.9 0.2 64
2019-10-10 20:00:00 15.2 3 Norte 10 Nordeste 0 925.6 -0.5 56
2019-10-10 19:00:00 19.2 3 Este 13 Este 0 925.6 -1 35
2019-10-10 18:00:00 21.5 4 Nordeste 15 Este 0 925.7 -1.3 27
2019-10-10 17:00:00 22 7 Sudeste 22 Sudeste 0 926.1 -1.9 28
2019-10-10 16:00:00 21.4 5 Este 19 Nordeste 0 926.6 -1.8 32
2019-10-10 15:00:00 19.9 5 Este 22 Nordeste 0 927 -1.8 38
2019-10-10 14:00:00 18.4 8 Este 22 Nordeste 0 928 -1.1 41
2019-10-10 13:00:00 16.7 9 Nordeste 24 Nordeste 0 928.4 -0.4 49
2019-10-10 12:00:00 14.3 10 Nordeste 26 Nordeste 0 928.8 0.4 59
2019-10-10 11:00:00 12.3 9 Nordeste 21 Nordeste 0 929.1 1.2 68
2019-10-10 10:00:00 9.7 9 Nordeste 19 Nordeste 0 928.8 0.9 80
2019-10-10 09:00:00 5.7 4 Norte 10 Nordeste 0 928.4 0.6 96
2019-10-10 08:00:00 5.9 0 Calma 12 Norte 0 927.9 0.1 93
2019-10-10 07:00:00 7.2 7 Norte 18 Norte 0 927.9 -0.1 90
2019-10-10 06:00:00 7.2 9 Norte 16 Norte 0 927.8 -0.1 92
2019-10-10 05:00:00 6.9 4 Norte 11 Nordeste 0 927.8 -0.6 90
2019-10-10 04:00:00 7.4 4 Norte 12 Nordeste 0 928 -0.3 86
2019-10-10 03:00:00 8 6 Nordeste 15 Nordeste 0 927.9 -0.1 85
2019-10-10 02:00:00 8.2 5 Nordeste 13 Nordeste 0 928.4 0.8 84
2019-10-10 01:00:00 9.3 7 Nordeste 18 Nordeste 0 928.3 0.7 81
2019-10-10 00:00:00 9.7 6 Nordeste 21 Este 0 928 0.8 80
2019-10-09 23:00:00 9.8 8 Nordeste 21 Nordeste 0 927.6 1 78
2019-10-09 22:00:00 10.8 8 Nordeste 26 Nordeste 0 927.6 1.7 70
2019-10-09 21:00:00 12 10 Nordeste 31 Nordeste 0 927.2 1.7 65
2019-10-09 20:00:00 14.3 9 Nordeste 33 Nordeste 0 926.6 0.9 59
2019-10-09 19:00:00 17.4 9 Nordeste 24 Nordeste 0 925.9 0 46
2019-10-09 18:00:00 20.5 3 Sur 13 Sudeste 0 925.5 -0.7 43
2019-10-09 17:00:00 20.8 4 Norte 10 Norte 0 925.7 -0.9 38
2019-10-09 16:00:00 20.1 5 Noroeste 15 Sudeste 0 925.9 -1.3 41
2019-10-09 15:00:00 18.9 5 Noroeste 14 Noroeste 0 926.2 -1.1 43
2019-10-09 14:00:00 17.4 4 Norte 14 Sudeste 0 926.6 -0.7 55
2019-10-09 13:00:00 16.7 5 Nordeste 14 Sudeste 0 927.2 0.5 61
2019-10-09 12:00:00 15.1 6 Norte 15 Este 0 927.3 1 66
2019-10-09 11:00:00 13.6 8 Nordeste 15 Norte 0 927.3 1.6 73
2019-10-09 10:00:00 12.8 5 Este 13 Sudeste 0 926.7 1.1 80
2019-10-09 09:00:00 10.9 3 Norte 7 Norte 0 926.3 1.3 90
2019-10-09 08:00:00 11.7 3 Este 12 Este 0 925.7 1 82
2019-10-09 07:00:00 12.7 2 Noroeste 8 Este 0 925.6 1.1 84
2019-10-09 06:00:00 12.8 3 Sudeste 10 Noroeste 0 925 0.7 83
2019-10-09 05:00:00 12.6 4 Oeste 11 Noroeste 0 924.7 -0.4 83
2019-10-09 04:00:00 11.9 3 Norte 11 Noroeste 0 924.5 -0.2 85
2019-10-09 03:00:00 12.2 3 Nordeste 16 Sudeste 0 924.3 -0.5 82
2019-10-09 02:00:00 12 4 Norte 10 Noroeste 0 925.1 0.5 86
2019-10-09 01:00:00 12.7 5 Norte 17 Norte 0 924.7 0.3 82
2019-10-09 00:00:00 13.3 5 Norte 19 Nordeste 0 924.8 0.9 81
2019-10-08 23:00:00 14.6 11 Nordeste 23 Nordeste 0 924.6 1.5 78
2019-10-08 22:00:00 15.8 9 Nordeste 24 Nordeste 0 924.4 1.4 75
2019-10-08 21:00:00 17.9 9 Nordeste 24 Nordeste 0 923.9 0.9 70
2019-10-08 20:00:00 19.1 0 Calma 9 Oeste 0 923.1 -0.2 64
2019-10-08 19:00:00 22.3 0 Calma 14 Sudoeste 0 923 -0.7 49
2019-10-08 18:00:00 25.7 5 Sudoeste 21 Sudoeste 0 923 -1 32
2019-10-08 17:00:00 26.7 6 Sudoeste 20 Sudoeste 0 923.3 -1.3 30
2019-10-08 16:00:00 26.2 3 Este 19 Sudoeste 0 923.7 -1.6 31
2019-10-08 15:00:00 25.8 9 Sudoeste 31 Sudoeste 0 924 -1.9 32
2019-10-08 14:00:00 24.3 4 Oeste 22 Noroeste 0 924.6 -1.3 32
2019-10-08 13:00:00 22.4 4 Oeste 11 Sudoeste 0 925.3 -0.8 37
2019-10-08 12:00:00 19.4 3 Oeste 11 Sudoeste 0 925.9 0.1 42
2019-10-08 11:00:00 16.7 3 Sur 10 Sudeste 0 925.9 0.1 47
2019-10-08 10:00:00 12.1 0 Calma 5 Sudeste 0 926.1 0.3 75
2019-10-08 09:00:00 6.9 0 Calma 3 Noroeste 0 925.8 0 97
2019-10-08 08:00:00 6.3 0 Calma 4 Noroeste 0 925.8 -0.2 96
2019-10-08 07:00:00 7 0 Calma 3 Sudoeste 0 925.8 -0.5 96
2019-10-08 06:00:00 7.1 2 Sudoeste 3 Sudoeste 0 925.8 -0.8 95
2019-10-08 05:00:00 7.5 0 Calma 3 Oeste 0 926 -0.9 95
2019-10-08 04:00:00 7.8 0 Calma 4 Norte 0 926.3 -0.7 92
2019-10-08 03:00:00 8.4 0 Calma 4 Nordeste 0 926.6 -0.5 86
2019-10-08 02:00:00 9.2 0 Calma 3 Norte 0 926.9 -0.3 83
2019-10-08 01:00:00 10.4 0 Calma 7 Nordeste 0 927 0.1 75
2019-10-08 00:00:00 12.5 3 Nordeste 13 Norte 0 927.1 0.6 60
2019-10-07 23:00:00 12.2 3 Norte 8 Nordeste 0 927.2 0.9 64
2019-10-07 22:00:00 12.6 3 Nordeste 9 Este 0 926.9 0.6 71
2019-10-07 21:00:00 14.4 0 Calma 3 Norte 0 926.5 0.2 71
2019-10-07 20:00:00 16.9 0 Calma 3 Norte 0 926.3 -0.2 68
2019-10-07 19:00:00 19.6 2 Noroeste 4 Sudeste 0 926.3 -0.4 55
2019-10-07 18:00:00 23.5 2 Sur 8 Sudeste 0 926.3 -0.7 35
2019-10-07 17:00:00 25 0 Calma 8 Noroeste 0 926.5 -1.1 31
2019-10-07 16:00:00 24.3 3 Oeste 13 Sur 0 926.7 -1.4 27
2019-10-07 15:00:00 23.2 4 Sur 15 Sur 0 927 -1.2 31
2019-10-07 14:00:00 21.7 3 Sudeste 14 Sudoeste 0 927.6 -0.9 43
2019-10-07 13:00:00 19.5 4 Sudoeste 16 Sudoeste 0 928.1 -0.1 50
2019-10-07 12:00:00 17.3 5 Sur 15 Sudoeste 0 928.2 0.2 62
2019-10-07 11:00:00 14.2 2 Nordeste 8 Norte 0 928.5 0.6 75
2019-10-07 10:00:00 10.4 3 Norte 7 Noroeste 0 928.2 0.7 97
2019-10-07 09:00:00 7.6 3 Noroeste 6 Noroeste 0 928 0.9 98
2019-10-07 08:00:00 6.6 0 Calma 3 Noroeste 0 927.9 0.6 97
2019-10-07 07:00:00 6.8 0 Calma 3 Oeste 0 927.5 0.1 96
2019-10-07 06:00:00 7.9 0 Calma 5 Noroeste 0 927.1 -1.2 96
2019-10-07 05:00:00 9.1 4 Norte 11 Norte 0 927.3 -0.8 97
2019-10-07 04:00:00 8.7 3 Norte 7 Norte 0 927.4 -0.9 96
2019-10-07 03:00:00 9.1 2 Norte 8 Norte 0 928.3 -0.1 95
2019-10-07 02:00:00 9.4 4 Norte 6 Noroeste 0 928.1 -0.1 96
2019-10-07 01:00:00 9.8 3 Norte 4 Norte 0 928.3 0.3 92
2019-10-07 00:00:00 11.1 2 Norte 6 Noroeste 0 928.4 1.2 84
2019-10-06 23:00:00 12.8 3 Nordeste 25 Nordeste 0 928.2 1.5 80
2019-10-06 22:00:00 13.9 12 Nordeste 25 Nordeste 0 928 1.8 76
2019-10-06 21:00:00 15.4 7 Nordeste 23 Nordeste 0 927.2 1 69
2019-10-06 20:00:00 16.6 7 Nordeste 19 Norte 0 926.7 0.3 64
2019-10-06 19:00:00 19.2 2 Sur 11 Sur 0 926.2 -0.5 50
2019-10-06 18:00:00 22.3 2 Oeste 14 Norte 0 926.2 -1 40
2019-10-06 17:00:00 22.3 4 Sudoeste 16 Norte 0 926.4 -1.2 36
2019-10-06 16:00:00 21.8 4 Norte 10 Noroeste 0 926.7 -1.3 42
2019-10-06 15:00:00 21 3 Oeste 15 Sudoeste 0 927.2 -1 48
2019-10-06 14:00:00 19.9 6 Sudoeste 13 Sur 0 927.6 -0.8 50
2019-10-06 13:00:00 18 4 Sudeste 12 Sudeste 0 928 0 59
2019-10-06 12:00:00 15.3 2 Este 10 Sudeste 0 928.2 1 74
2019-10-06 11:00:00 12.6 0 Calma 9 Norte 0 928.4 2 97
2019-10-06 10:00:00 10.4 5 Norte 8 Norte 0 928 1.5 99
2019-10-06 09:00:00 8.2 0 Calma 6 Noroeste 0 927.2 1.1 99
2019-10-06 08:00:00 8.3 0 Calma 8 Noroeste 0 926.4 0.9 98
2019-10-06 07:00:00 7.5 5 Norte 8 Norte 0 926.5 0.8 97
2019-10-06 06:00:00 8.3 3 Norte 8 Nordeste 0 926.1 0.3 97
2019-10-06 05:00:00 9 0 Calma 15 Nordeste 0 925.5 0.1 96
2019-10-06 04:00:00 9.8 6 Nordeste 14 Nordeste 0 925.7 0.5 95
2019-10-06 03:00:00 10.5 4 Nordeste 13 Nordeste 0 925.8 0.2 94
2019-10-06 02:00:00 10.9 2 Norte 13 Nordeste 0 925.4 0.3 87
2019-10-06 01:00:00 12.1 5 Nordeste 13 Este 0 925.2 0.8 83
2019-10-06 00:00:00 12.8 3 Nordeste 16 Nordeste 0 925.6 1.5 79
2019-10-05 23:00:00 13.4 7 Nordeste 15 Nordeste 0 925.1 1.4 69
2019-10-05 22:00:00 12.4 2 Norte 3 Norte 0 924.4 1 83
2019-10-05 21:00:00 14 0 Calma 3 Norte 0 924.1 1.1 79
2019-10-05 20:00:00 16.9 0 Calma 9 Sudoeste 0 923.7 0.8 67
2019-10-05 19:00:00 20.4 4 Sudoeste 14 Sudoeste 0 923.4 0 49
2019-10-05 18:00:00 23.3 2 Sur 16 Sudoeste 0 923 -0.6 40
2019-10-05 17:00:00 23.9 5 Sudoeste 21 Sudoeste 0 922.9 -1.3 39
2019-10-05 16:00:00 23.5 4 Oeste 17 Sudoeste 0 923.4 -1.3 40
2019-10-05 15:00:00 22.7 4 Sudoeste 17 Sur 0 923.6 -1.5 49
2019-10-05 14:00:00 20.9 4 Sur 11 Sur 0 924.2 -0.8 56
2019-10-05 13:00:00 18.1 4 Oeste 12 Noroeste 0 924.7 -0.1 67
2019-10-05 12:00:00 15.6 2 Este 11 Norte 0 925.1 0.9 78
2019-10-05 11:00:00 12.7 5 Nordeste 12 Nordeste 0 925 1.3 95
2019-10-05 10:00:00 11.6 5 Norte 12 Nordeste 0 924.8 1.1 98
2019-10-05 09:00:00 11.2 5 Nordeste 17 Nordeste 0 924.2 0.3 98
2019-10-05 08:00:00 11.4 6 Nordeste 17 Norte 0 923.7 -0.1 96
2019-10-05 07:00:00 11.6 5 Nordeste 19 Nordeste 0 923.7 -0.4 95
2019-10-05 06:00:00 10.7 7 Nordeste 14 Nordeste 0 923.9 -0.6 96
2019-10-05 05:00:00 10.6 5 Norte 15 Norte 0 923.8 -0.7 95
2019-10-05 04:00:00 11.1 8 Nordeste 18 Nordeste 0 924.1 -0.5 94
2019-10-05 03:00:00 10.8 7 Nordeste 16 Nordeste 0 924.5 0.1 94
2019-10-05 02:00:00 11 7 Nordeste 16 Nordeste 0 924.5 0.2 93
2019-10-05 01:00:00 11.8 4 Nordeste 17 Este 0 924.6 0.5 86
2019-10-05 00:00:00 12.5 6 Nordeste 21 Este 0 924.4 1 82
2019-10-04 23:00:00 13.5 5 Este 18 Nordeste 0 924.3 1.1 77
2019-10-04 22:00:00 14.8 7 Nordeste 18 Nordeste 0 924.1 1.4 74
2019-10-04 21:00:00 15.3 0 Calma 4 Noroeste 0 923.4 0.6 75
2019-10-04 20:00:00 17.7 0 Calma 6 Sudoeste 0 923.2 0.4 70
2019-10-04 19:00:00 20.5 2 Oeste 14 Sudoeste 0 922.7 -0.6 53
2019-10-04 18:00:00 23.8 4 Sudoeste 19 Sudoeste 0 922.8 -1.2 42
2019-10-04 17:00:00 24.1 7 Sur 17 Oeste 0 922.8 -2.1 38
2019-10-04 16:00:00 23.4 9 Sudoeste 18 Sudoeste 0 923.3 -2.1 41
2019-10-04 15:00:00 22.4 3 Nordeste 14 Sudeste 0 924 -1.7 43
2019-10-04 14:00:00 21.4 6 Este 18 Nordeste 0 924.9 -0.6 46
2019-10-04 13:00:00 19.4 6 Este 24 Este 0 925.4 0.1 51
2019-10-04 12:00:00 17.8 9 Nordeste 20 Nordeste 0 925.7 0.7 54
2019-10-04 11:00:00 15.4 5 Nordeste 11 Este 0 925.5 0.9 68
2019-10-04 10:00:00 11.9 0 Calma 5 Sudeste 0 925.3 0.6 87
2019-10-04 09:00:00 6.8 0 Calma 4 Sudoeste 0 925 0.4 98
2019-10-04 08:00:00 6.6 0 Calma 5 Sudoeste 0 924.6 -0.2 97
2019-10-04 07:00:00 7 3 Norte 5 Norte 0 924.7 0 97
2019-10-04 06:00:00 7.6 2 Noroeste 5 Sudoeste 0 924.6 -0.8 96
2019-10-04 05:00:00 8.3 0 Calma 7 Norte 0 924.8 -0.8 94
2019-10-04 04:00:00 9.1 0 Calma 9 Nordeste 0 924.7 -1 86
2019-10-04 03:00:00 9.4 5 Norte 10 Norte 0 925.4 -0.5 87
2019-10-04 02:00:00 10.4 3 Noroeste 12 Este 0 925.6 -0.1 81
2019-10-04 01:00:00 11.1 3 Nordeste 9 Este 0 925.7 0.6 79
2019-10-04 00:00:00 12.1 3 Nordeste 13 Nordeste 0 925.9 1 72
2019-10-03 23:00:00 13.3 6 Nordeste 16 Norte 0 925.7 1.2 61
2019-10-03 22:00:00 11.9 0 Calma 3 Noroeste 0 925.1 0.8 77
2019-10-03 21:00:00 14.1 0 Calma 5 Sudoeste 0 924.9 0.4 73
2019-10-03 20:00:00 16.8 0 Calma 8 Oeste 0 924.5 -0.3 67
2019-10-03 19:00:00 19.9 0 Calma 11 Sudoeste 0 924.3 -0.7 44
2019-10-03 18:00:00 23.7 3 Sudoeste 14 Sur 0 924.5 -1 34
2019-10-03 17:00:00 23.9 3 Sudoeste 14 Sudoeste 0 924.8 -1.1 28
2019-10-03 16:00:00 23.1 4 Sudoeste 18 Oeste 0 925 -1.3 33
2019-10-03 15:00:00 21.7 4 Oeste 21 Sudoeste 0 925.5 -1.2 41
2019-10-03 14:00:00 20.4 5 Sudoeste 27 Sudoeste 0 925.9 -1 46
2019-10-03 13:00:00 18.6 7 Sudoeste 23 Sur 0 926.3 -0.3 51
2019-10-03 12:00:00 16.2 5 Sudoeste 15 Sudoeste 0 926.7 0.2 64
2019-10-03 11:00:00 13.5 4 Sur 8 Sudoeste 0 926.9 0.7 76
2019-10-03 10:00:00 9.7 2 Nordeste 5 Nordeste 0 926.6 0.5 99
2019-10-03 09:00:00 5.8 0 Calma 3 Oeste 0 926.5 0.6 98
2019-10-03 08:00:00 5.1 0 Calma 4 Oeste 0 926.2 0.1 97
2019-10-03 07:00:00 5.7 0 Calma 3 Oeste 0 926.1 -0.3 97
2019-10-03 06:00:00 6.3 0 Calma 3 Oeste 0 925.9 -1 97
2019-10-03 05:00:00 6.5 0 Calma 3 Norte 0 926.1 -1 96
2019-10-03 04:00:00 7.3 2 Noroeste 5 Noroeste 0 926.4 -0.9 96
2019-10-03 03:00:00 8 2 Norte 7 Nordeste 0 926.9 -0.5 95
2019-10-03 02:00:00 8 2 Norte 6 Norte 0 927.1 -0.5 86
2019-10-03 01:00:00 9.4 4 Norte 8 Nordeste 0 927.3 -0.2 89
2019-10-03 00:00:00 10.4 3 Nordeste 14 Nordeste 0 927.4 0.5 83
2019-10-02 23:00:00 11.5 5 Nordeste 17 Nordeste 0 927.6 1.4 79
2019-10-02 22:00:00 12.7 5 Nordeste 18 Este 0 927.5 1.7 72
2019-10-02 21:00:00 14.4 5 Este 19 Este 0 926.9 1.3 63
2019-10-02 20:00:00 15.7 5 Este 14 Este 0 926.2 0.7 56
2019-10-02 19:00:00 17.5 2 Sudeste 9 Sudeste 0 925.8 0.2 50
2019-10-02 18:00:00 20.9 6 Sudeste 16 Este 0 925.6 -0.2 36
2019-10-02 17:00:00 21.2 5 Sudeste 17 Este 0 925.5 -0.3 34
2019-10-02 16:00:00 20.8 6 Nordeste 24 Nordeste 0 925.6 -0.4 34
2019-10-02 15:00:00 19.7 6 Nordeste 19 Nordeste 0 925.8 -0.1 37
2019-10-02 14:00:00 19.3 7 Este 23 Nordeste 0 925.8 -0.1 41
2019-10-02 13:00:00 18.1 9 Noroeste 24 Oeste 0 926 0.7 42
2019-10-02 12:00:00 16.7 9 Noroeste 21 Noroeste 0 925.9 1.2 50
2019-10-02 11:00:00 15.1 2 Este 6 Sudeste 0 925.9 1.8 59
2019-10-02 10:00:00 11.6 2 Sudeste 8 Sudoeste 0 925.3 1.7 76
2019-10-02 09:00:00 6.4 0 Calma 6 Sudeste 0 924.7 1.2 94
2019-10-02 08:00:00 6.6 0 Calma 17 Noroeste 0 924.1 0.6 85
2019-10-02 07:00:00 7.8 9 Noroeste 20 Noroeste 0 923.6 0.2 84
2019-10-02 06:00:00 7.2 5 Sudoeste 9 Sur 0 923.5 0 95
2019-10-02 05:00:00 7.9 2 Noroeste 9 Noroeste 0 923.5 0 89
2019-10-02 04:00:00 9.2 5 Noroeste 11 Noroeste 0 923.4 0 83
2019-10-02 03:00:00 9.5 2 Norte 12 Oeste 0 923.5 0.3 82
2019-10-02 02:00:00 10.8 4 Noroeste 15 Noroeste 0 923.5 1 76
2019-10-02 01:00:00 9.9 2 Norte 8 Este 0 923.4 1.1 77
2019-10-02 00:00:00 12.3 4 Norte 12 Noroeste 0 923.2 2 70
2019-10-01 23:00:00 13.5 3 Sudeste 14 Oeste 0 922.5 1.7 66
2019-10-01 22:00:00 15.1 4 Noroeste 18 Norte 0 922.3 1.8 61
2019-10-01 21:00:00 14.5 2 Sudoeste 10 Este 0 921.2 0.6 63
2019-10-01 20:00:00 17.5 3 Sur 16 Sudoeste 0 920.8 0.3 47
2019-10-01 19:00:00 19.9 4 Sudoeste 26 Oeste 0 920.5 -0.1 35
2019-10-01 18:00:00 22.9 4 Sur 19 Oeste 0 920.6 -0.4 31
2019-10-01 17:00:00 23.3 5 Sudoeste 29 Sudoeste 0 920.5 -1.3 31
2019-10-01 16:00:00 23 4 Sur 31 Sur 0 920.6 -1.2 33
2019-10-01 15:00:00 22.2 8 Sudoeste 30 Sur 0 921 -0.9 43
2019-10-01 14:00:00 21.7 6 Noroeste 29 Noroeste 0 921.8 0 47
2019-10-01 13:00:00 20.9 7 Sudoeste 31 Sur 0 921.8 0.3 49
2019-10-01 12:00:00 18.9 4 Oeste 24 Sudoeste 0 921.9 0.9 60
2019-10-01 11:00:00 17.6 5 Sudoeste 23 Sudoeste 0 921.8 1.3 68
2019-10-01 10:00:00 13.6 3 Sudoeste 14 Oeste 0 921.5 1.1 97
2019-10-01 09:00:00 10.1 0 Calma 6 Sudoeste 0 921 0.4 99
2019-10-01 08:00:00 9.2 0 Calma 4 Sudoeste 0 920.5 0.4 97
2019-10-01 07:00:00 10 0 Calma 4 Sudoeste 0 920.4 -0.1 97
2019-10-01 06:00:00 10.5 0 Calma 5 Noroeste 0 920.6 -0.7 98
2019-10-01 05:00:00 10.9 3 Oeste 4 Noroeste 0 920.1 -1.4 97
2019-10-01 04:00:00 11.1 0 Calma 4 Sudoeste 0 920.5 -1.2 97
2019-10-01 03:00:00 11 4 Sudoeste 8 Sudoeste 0 921.3 -0.5 96
2019-10-01 02:00:00 11.2 0 Calma -- -- 0 921.5 -0.3 95
2019-10-01 01:00:00 12 0 Calma 3 Norte 0 921.7 0.1 94
2019-10-01 00:00:00 12.9 2 Norte 4 Noroeste 0 921.8 0.3 93
2019-09-30 23:00:00 14.1 0 Calma 6 Noroeste 0 921.8 0.1 84
2019-09-30 22:00:00 15.7 0 Calma -- -- 0 921.6 0 80
2019-09-30 21:00:00 17.5 0 Calma 2 Norte 0 921.5 -0.4 74
2019-09-30 20:00:00 19.7 0 Calma 15 Sudoeste 0 921.7 -0.9 67
2019-09-30 19:00:00 23 3 Oeste 24 Sudoeste 0 921.6 -1.6 50
2019-09-30 18:00:00 25.4 4 Oeste 21 Sudoeste 0 921.9 -1.9 45
2019-09-30 17:00:00 25.6 4 Sudoeste 23 Sudoeste 0 922.6 -2.1 43
2019-09-30 16:00:00 25.5 6 Sudoeste 25 Sudoeste 0 923.2 -2.2 47
2019-09-30 15:00:00 24.2 6 Sudoeste 19 Sudoeste 0 923.8 -2 52
2019-09-30 14:00:00 22.9 6 Oeste 21 Sur 0 924.7 -1.4 54
2019-09-30 13:00:00 20.5 3 Nordeste 13 Noroeste 0 925.4 -0.3 63
2019-09-30 12:00:00 16.4 4 Noroeste 12 Norte 0 925.8 0.4 82
2019-09-30 11:00:00 12.8 0 Calma 8 Norte 0 926.1 1 99
2019-09-30 10:00:00 11.8 3 Norte 8 Norte 0 925.7 0.9 99
2019-09-30 09:00:00 9.8 0 Calma 4 Noroeste 0 925.4 0.6 99
2019-09-30 08:00:00 8.1 0 Calma 4 Norte 0 925.1 0.3 98
2019-09-30 07:00:00 8.8 2 Norte 4 Norte 0 924.8 -0.1 98
2019-09-30 06:00:00 8.9 0 Calma 4 Norte 0 924.8 -0.5 97
2019-09-30 05:00:00 9.8 2 Norte 6 Sudoeste 0 924.8 -0.5 97
2019-09-30 04:00:00 10.4 2 Norte 5 Noroeste 0 924.9 -0.5 96
2019-09-30 03:00:00 11.5 2 Sur 5 Sudoeste 0 925.3 -0.1 95
2019-09-30 02:00:00 12.7 0 Calma 5 Sur 0 925.3 0.1 94
2019-09-30 01:00:00 13.5 3 Sudoeste 5 Sudoeste 0 925.4 0.5 95
2019-09-30 00:00:00 13.8 0 Calma 5 Este 0 925.4 1.4 94
2019-09-29 23:00:00 13.2 0 Calma 4 Oeste 0 925.2 1.6 84
2019-09-29 22:00:00 14.2 2 Noroeste 7 Sudoeste 0 924.9 1.3 79
2019-09-29 21:00:00 16.1 0 Calma 4 Norte 0 924 0.5 73
2019-09-29 20:00:00 19.2 0 Calma 6 Norte 0 923.6 -0.2 64
2019-09-29 19:00:00 22.4 5 Noroeste 14 Norte 0 923.6 -0.6 43
2019-09-29 18:00:00 25.5 5 Noroeste 21 Sudoeste 0 923.5 -1.1 31
2019-09-29 17:00:00 26 5 Sudoeste 26 Sur 0 923.8 -1.8 28
2019-09-29 16:00:00 25.8 9 Sudoeste 28 Sur 0 924.2 -1.7 24
2019-09-29 15:00:00 25.3 9 Sudoeste 28 Sudoeste 0 924.6 -1.3 25
2019-09-29 14:00:00 23.5 5 Sudoeste 22 Sudoeste 0 925.6 -0.1 26
2019-09-29 13:00:00 21.4 4 Oeste 18 Sudoeste 0 925.9 0.5 29
2019-09-29 12:00:00 19.4 4 Sudoeste 14 Sudoeste 0 925.9 0.9 40
2019-09-29 11:00:00 15.8 4 Sudoeste 11 Sudoeste 0 925.7 1 59
2019-09-29 10:00:00 10.8 3 Noroeste 5 Noroeste 0 925.4 0.9 83
2019-09-29 09:00:00 5.9 2 Noroeste 5 Noroeste 0 925 0.5 98
2019-09-29 08:00:00 5.4 0 Calma 5 Noroeste 0 924.7 0.2 97
2019-09-29 07:00:00 6 3 Noroeste 10 Oeste 0 924.5 -0.3 97
2019-09-29 06:00:00 5.6 0 Calma 5 Norte 0 924.5 -0.7 96
2019-09-29 05:00:00 6 2 Este 5 Noroeste 0 924.5 -0.7 96
2019-09-29 04:00:00 6.7 3 Noroeste 6 Oeste 0 924.8 -0.5 96
2019-09-29 03:00:00 7 2 Oeste 4 Noroeste 0 925.2 -0.4 95
2019-09-29 02:00:00 7.5 0 Calma 7 Noroeste 0 925.2 -0.2 92
2019-09-29 01:00:00 8.9 2 Noroeste 8 Noroeste 0 925.3 -0.1 92
2019-09-29 00:00:00 9.4 2 Norte 5 Sur 0 925.6 0.4 91
2019-09-28 23:00:00 10.5 2 Norte 4 Noroeste 0 925.4 0.2 84
2019-09-28 22:00:00 11.7 3 Norte 4 Norte 0 925.4 0.2 81
2019-09-28 21:00:00 13.8 0 Calma 5 Noroeste 0 925.2 -0.1 72
2019-09-28 20:00:00 16.9 2 Norte 13 Sur 0 925.2 -0.3 60
2019-09-28 19:00:00 21.2 5 Sudoeste 17 Sudoeste 0 925.2 -0.8 31
2019-09-28 18:00:00 23.6 6 Sudoeste 21 Sudoeste 0 925.3 -1.5 27
2019-09-28 17:00:00 23.8 8 Sudoeste 19 Sudoeste 0 925.5 -2 28
2019-09-28 16:00:00 23.1 5 Sudoeste 20 Sudoeste 0 926 -2.1 30
2019-09-28 15:00:00 21.8 4 Sudoeste 21 Sudoeste 0 926.8 -1.6 35
2019-09-28 14:00:00 21.2 8 Sudoeste 17 Sur 0 927.5 -0.9 41
2019-09-28 13:00:00 19.3 5 Oeste 15 Sur 0 928.1 0.2 51
2019-09-28 12:00:00 18.1 4 Sudoeste 12 Sur 0 928.4 0.9 61
2019-09-28 11:00:00 16.2 3 Sur 16 Este 0 928.4 1.2 71
2019-09-28 10:00:00 14.1 7 Sudeste 12 Este 0 927.9 0.7 82
2019-09-28 09:00:00 12.1 2 Nordeste 6 Sudeste 0 927.5 0.2 94
2019-09-28 08:00:00 12.2 0 Calma 5 Norte 0 927.2 -0.2 94
2019-09-28 07:00:00 12.4 2 Nordeste 8 Nordeste 0 927.2 -0.3 94
2019-09-28 06:00:00 12.1 3 Nordeste 9 Nordeste 0 927.3 -0.2 94
2019-09-28 05:00:00 11.7 3 Norte 9 Nordeste 0 927.4 0 96
2019-09-28 04:00:00 10.7 3 Norte 13 Nordeste 0 927.5 -0.1 96
2019-09-28 03:00:00 10.5 5 Nordeste 9 Nordeste 0 927.5 0.2 96
2019-09-28 02:00:00 10.9 2 Nordeste 7 Nordeste 0 927.4 0.6 95
2019-09-28 01:00:00 11.3 2 Nordeste 8 Este 0 927.6 1.1 92
2019-09-28 00:00:00 11.8 3 Este 9 Norte 0 927.3 1.6 89
2019-09-27 23:00:00 12.7 0 Calma 4 Oeste 0 926.8 1.4 83
2019-09-27 22:00:00 13.5 0 Calma 5 Este 0 926.5 1.3 82
2019-09-27 21:00:00 15.5 0 Calma 2 Noroeste 0 925.7 0.6 75
2019-09-27 20:00:00 18.3 2 Noroeste 12 Noroeste 0 925.4 0.3 68
2019-09-27 19:00:00 21.1 4 Noroeste 19 Sudoeste 0 925.2 0 49
2019-09-27 18:00:00 22.4 5 Sudoeste 14 Sudoeste 0 925.1 -0.7 43
2019-09-27 17:00:00 23.4 4 Oeste 26 Sudoeste 0 925.1 -1.2 43
2019-09-27 16:00:00 23.5 4 Oeste 21 Sur 0 925.2 -1.5 42
2019-09-27 15:00:00 22.7 5 Oeste 20 Sudoeste 0 925.8 -1 46
2019-09-27 14:00:00 21.4 5 Sudoeste 18 Sudoeste 0 926.3 -0.8 47
2019-09-27 13:00:00 19.7 5 Sudoeste 18 Sudoeste 0 926.7 -0.1 55
2019-09-27 12:00:00 18 4 Sudoeste 17 Sudoeste 0 926.8 0.2 57
2019-09-27 11:00:00 14.6 4 Sudoeste 13 Sur 0 927.1 1 67
2019-09-27 10:00:00 10.7 3 Sudoeste 9 Sudoeste 0 926.8 1 96
2019-09-27 09:00:00 6 3 Oeste 5 Noroeste 0 926.6 0.7 98
2019-09-27 08:00:00 4.9 0 Calma 7 Noroeste 0 926.1 0.3 97
2019-09-27 07:00:00 5.2 0 Calma -- -- 0 925.8 0 97
2019-09-27 06:00:00 5.8 0 Calma 4 Noroeste 0 925.9 0.1 97
2019-09-27 05:00:00 6.2 0 Calma 5 Noroeste 0 925.8 -0.2 96
2019-09-27 04:00:00 7.1 0 Calma 3 Este 0 925.8 -0.2 96
2019-09-27 03:00:00 7.7 2 Oeste 3 Oeste 0 925.8 -0.1 95
2019-09-27 02:00:00 8.4 0 Calma 6 Oeste 0 926 0.3 94
2019-09-27 01:00:00 8.7 0 Calma 4 Oeste 0 926 0.6 93
2019-09-27 00:00:00 9.8 0 Calma 5 Norte 0 925.9 0.9 85
2019-09-26 23:00:00 10.9 0 Calma 8 Noroeste 0 925.7 0.9 82
2019-09-26 22:00:00 12.6 2 Noroeste 5 Noroeste 0 925.4 0.9 80
2019-09-26 21:00:00 14.5 2 Oeste 4 Sudoeste 0 925 0.6 70
2019-09-26 20:00:00 17.5 2 Norte 14 Sudoeste 0 924.8 0.1 59
2019-09-26 19:00:00 21.4 3 Sudoeste 15 Sudoeste 0 924.5 -0.7 32
2019-09-26 18:00:00 24.2 5 Sudoeste 20 Sur 0 924.4 -1 26
2019-09-26 17:00:00 24 6 Sudoeste 22 Sudoeste 0 924.7 -1.4 27
2019-09-26 16:00:00 23.3 6 Sudoeste 26 Sur 0 925.2 -0.9 31
2019-09-26 15:00:00 22.6 3 Oeste 21 Sudoeste 0 925.4 -0.9 40
2019-09-26 14:00:00 21.2 6 Sudoeste 22 Sudoeste 0 926.1 -0.1 43
2019-09-26 13:00:00 19.8 9 Sudoeste 26 Sudoeste 0 926.1 -0.1 49
2019-09-26 12:00:00 18.1 7 Sudoeste 18 Sudoeste 0 926.3 0.4 57
2019-09-26 11:00:00 16.1 6 Sur 15 Sudoeste 0 926.2 0.7 67
2019-09-26 10:00:00 12.3 2 Sudoeste 12 Noroeste 0 926.2 1 95
2019-09-26 09:00:00 8.3 0 Calma 3 Noroeste 0 925.9 0.6 98
2019-09-26 08:00:00 7.3 0 Calma 3 Sudeste 0 925.5 0.2 97
2019-09-26 07:00:00 8 0 Calma 4 Norte 0 925.2 0.1 98
2019-09-26 06:00:00 8.4 2 Noroeste 3 Noroeste 0 925.3 0.1 97
2019-09-26 05:00:00 8.6 2 Noroeste 4 Oeste 0 925.3 0 97
2019-09-26 04:00:00 9.3 0 Calma 9 Sudoeste 0 925.1 -0.2 97
2019-09-26 03:00:00 9.4 0 Calma 6 Norte 0 925.2 0 95
2019-09-26 02:00:00 10.1 0 Calma 5 Noroeste 0 925.3 0.3 94
2019-09-26 01:00:00 10.6 0 Calma 5 Noroeste 0 925.3 0.4 93
2019-09-26 00:00:00 11.1 0 Calma 10 Noroeste 0 925.2 0.6 85
2019-09-25 23:00:00 11.9 0 Calma 3 Noroeste 0 925 0.6 84
2019-09-25 22:00:00 13.2 0 Calma 2 Noroeste 0 924.9 0.7 80
2019-09-25 21:00:00 15.1 0 Calma 8 Sudoeste 0 924.6 0.2 72
2019-09-25 20:00:00 17.7 4 Sudoeste 14 Sur 0 924.4 -0.1 56
2019-09-25 19:00:00 19.3 2 Sur 15 Sudoeste 0 924.2 -0.6 50
2019-09-25 18:00:00 20.4 5 Sudoeste 26 Sudoeste 0 924.4 -0.7 45
2019-09-25 17:00:00 20.1 5 Sudoeste 23 Oeste 0 924.5 -1.1 45
2019-09-25 16:00:00 20.1 5 Sudoeste 16 Sudoeste 0 924.8 -1.2 45
2019-09-25 15:00:00 19.5 6 Sudoeste 23 Sudoeste 0 925.1 -1 44
2019-09-25 14:00:00 19.2 5 Oeste 18 Sur 0 925.6 -0.6 46
2019-09-25 13:00:00 17.9 3 Noroeste 16 Noroeste 0 926 0.1 48
2019-09-25 12:00:00 16 5 Noroeste 13 Sudoeste 0 926.1 1 51
2019-09-25 11:00:00 14 2 Este 15 Oeste 0 926.2 1.3 64
2019-09-25 10:00:00 11.4 3 Noroeste 8 Noroeste 0 925.9 1.5 80
2019-09-25 09:00:00 8 0 Calma 8 Noroeste 0 925.1 0.8 98
2019-09-25 08:00:00 7.8 3 Noroeste 16 Oeste 0 924.9 0.8 97
2019-09-25 07:00:00 8 3 Noroeste 14 Noroeste 0 924.4 0.3 94
2019-09-25 06:00:00 8.2 7 Noroeste 14 Noroeste 0 924.3 0 94
2019-09-25 05:00:00 8.9 2 Oeste 6 Noroeste 0 924.1 -0.1 85
2019-09-25 04:00:00 9.9 2 Nordeste 12 Noroeste 0 924.1 -0.3 80
2019-09-25 03:00:00 10.4 2 Sur 11 Oeste 0 924.3 -0.1 78
2019-09-25 02:00:00 10.4 0 Calma 9 Sudoeste 0 924.2 0 75
2019-09-25 01:00:00 11.6 0 Calma 11 Sur 0 924.4 0.5 69
2019-09-25 00:00:00 13.5 3 Sudeste 13 Este 0 924.4 1.1 68
2019-09-24 23:00:00 14.9 3 Sudoeste 17 Sur 0 924.2 1.5 64
2019-09-24 22:00:00 16 2 Este 12 Sudoeste 0 923.9 1.6 60
2019-09-24 21:00:00 16.7 2 Sur 10 Nordeste 0 923.3 1.2 58
2019-09-24 20:00:00 18.9 3 Sudeste 32 Sudoeste 0 922.7 0.4 58
2019-09-24 19:00:00 20.9 8 Sudoeste 38 Oeste 0 922.3 -0.4 49
2019-09-24 18:00:00 22.9 9 Sudoeste 41 Sudoeste 0 922.1 -1.1 45
2019-09-24 17:00:00 23 9 Sudoeste 33 Sudoeste 0 922.3 -1.7 48
2019-09-24 16:00:00 22.9 9 Sudoeste 31 Sur 0 922.7 -1.7 53
2019-09-24 15:00:00 21.7 7 Sudoeste 34 Sudoeste 0 923.2 -1.5 58
2019-09-24 14:00:00 19.6 11 Sudoeste 30 Sur 0 924 -0.7 64
2019-09-24 13:00:00 18.1 13 Sudoeste 32 Sudoeste 0 924.4 -0.1 69
2019-09-24 12:00:00 16.5 9 Sudoeste 30 Sudoeste 0 924.7 0.2 74
2019-09-24 11:00:00 16 10 Sudoeste 29 Sudoeste 0 924.7 0.5 74
2019-09-24 10:00:00 13.3 8 Sudoeste 22 Sudoeste 0 924.5 0.9 88
2019-09-24 09:00:00 12.2 8 Sudoeste 17 Sur 0 924.5 1 94
2019-09-24 08:00:00 11.7 6 Sudoeste 23 Sudoeste 0 924.2 0.1 94
2019-09-24 07:00:00 11.6 9 Sudoeste 22 Sudoeste 0 923.6 -0.8 94
2019-09-24 06:00:00 11.3 9 Sudoeste 24 Sudoeste 0 923.5 -1.2 93
2019-09-24 05:00:00 11.4 9 Sudoeste 19 Sudoeste 0 924.1 -1 90
2019-09-24 04:00:00 11.7 7 Sudoeste 19 Sudoeste 0 924.4 -0.8 85
2019-09-24 03:00:00 11.2 6 Sudoeste 14 Sudoeste 0 924.7 -0.9 93
2019-09-24 02:00:00 10.9 3 Oeste 8 Sudoeste 0 925.1 -0.7 96
2019-09-24 01:00:00 10.9 0 Calma 3 Oeste 0 925.2 -0.6 95
2019-09-24 00:00:00 11.7 2 Noroeste 5 Oeste 0 925.6 0.1 94
2019-09-23 23:00:00 12.6 0 Calma 2 Noroeste 0 925.8 0.4 85
2019-09-23 22:00:00 14 0 Calma 4 Sudoeste 0 925.8 0.5 80
2019-09-23 21:00:00 15.7 0 Calma 8 Sudoeste 0 925.5 0 73
2019-09-23 20:00:00 17.3 3 Oeste 17 Sudoeste 0 925.4 -0.2 59
2019-09-23 19:00:00 19 4 Sudoeste 20 Sudoeste 0 925.3 -0.6 51
2019-09-23 18:00:00 19.9 6 Sudoeste 23 Sur 0 925.5 -0.5 47
2019-09-23 17:00:00 19.1 8 Sudoeste 28 Sudoeste 0 925.6 -1.1 52
2019-09-23 16:00:00 19.7 8 Sudoeste 29 Sur 0 925.9 -0.6 49
2019-09-23 15:00:00 18.6 9 Sudoeste 33 Sudoeste 0 926 -1.1 54
2019-09-23 14:00:00 17.1 7 Sudoeste 32 Sur 0 926.7 -0.5 61
2019-09-23 13:00:00 16 12 Sudoeste 26 Sudoeste 0 926.5 0 64
2019-09-23 12:00:00 14.8 4 Sudoeste 24 Sur 0 927.1 1 73
2019-09-23 11:00:00 12.3 6 Sudoeste 50 Oeste 0 927.2 1.3 85
2019-09-23 10:00:00 10.4 5 Sudoeste 19 Sudoeste 0 926.5 1.1 98
2019-09-23 09:00:00 8.7 3 Sudoeste 15 Oeste 0 926.1 1.1 99
2019-09-23 08:00:00 7.3 0 Calma 4 Norte 0 925.9 1 98
2019-09-23 07:00:00 7.5 0 Calma 5 Sudeste 0 925.4 0.6 98
2019-09-23 06:00:00 8 3 Norte 5 Sudoeste 0 925 0.5 98
2019-09-23 05:00:00 8.1 0 Calma 5 Sur 0 924.9 0.4 97
2019-09-23 04:00:00 8.4 0 Calma 4 Sudoeste 0 924.8 0.5 97
2019-09-23 03:00:00 8.9 2 Oeste 4 Norte 0 924.5 0.7 97
2019-09-23 02:00:00 9.2 0 Calma 8 Sudoeste 0 924.5 0.9 96
2019-09-23 01:00:00 9.7 3 Sudoeste 10 Oeste 0 924.3 0.9 95
2019-09-23 00:00:00 9.5 4 Sudoeste 9 Sudoeste 0 923.8 0.9 93
2019-09-22 23:00:00 9.9 3 Sudoeste 7 Sudoeste 0 923.6 1.1 93
2019-09-22 22:00:00 10.7 2 Sudoeste 4 Sudoeste 0 923.4 1.2 84
2019-09-22 21:00:00 12.2 0 Calma 2 Noroeste 0 922.9 1.1 75
2019-09-22 20:00:00 14.9 0 Calma 15 Sudoeste 0 922.5 0.8 63
2019-09-22 19:00:00 17.5 7 Sudoeste 15 Sur 0 922.2 0.5 44
2019-09-22 18:00:00 19.7 3 Sur 13 Sudoeste 0 921.8 0.1 41
2019-09-22 17:00:00 19.2 4 Sudoeste 18 Sudoeste 0 921.7 0.1 41
2019-09-22 16:00:00 19 5 Sudoeste 27 Sudoeste 0 921.7 0.1 43
2019-09-22 15:00:00 18.3 4 Sudoeste 25 Sudoeste 0 921.7 0.1 48
2019-09-22 14:00:00 16.4 3 Sudoeste 27 Sudoeste 0 921.6 0.3 62
2019-09-22 13:00:00 16.7 4 Noroeste 21 Sudoeste 0 921.6 0.7 64
2019-09-22 12:00:00 14.3 7 Sudoeste 21 Sudoeste 0 921.6 1.4 80
2019-09-22 11:00:00 12.9 6 Sudoeste 19 Sudoeste 0 921.3 1.9 84
2019-09-22 10:00:00 11.8 5 Sudoeste 18 Sudoeste 0 920.9 2.3 94
2019-09-22 09:00:00 11.3 5 Sudoeste 17 Sudoeste 0 920.2 2.1 95
2019-09-22 08:00:00 11.1 7 Sudoeste 20 Sudoeste 0 919.4 1.6 95
2019-09-22 07:00:00 11.2 7 Sudoeste 19 Sudoeste 0 918.6 1.2 96
2019-09-22 06:00:00 11.2 7 Sudoeste 20 Sur 0 918.1 0.9 96
2019-09-22 05:00:00 11.9 7 Sudoeste 14 Sudoeste 0 917.8 1.4 94
2019-09-22 04:00:00 12.7 5 Sudoeste 31 Sur 0 917.4 0.7 93
2019-09-22 03:00:00 13.5 10 Sudoeste 26 Sudoeste 1.2 917.2 0.2 93
2019-09-22 02:00:00 15.3 10 Sudoeste 28 Sudoeste 0.4 916.4 -0.6 97
2019-09-22 01:00:00 15.5 15 Sudoeste 37 Sudoeste 0.2 916.7 -0.2 95
2019-09-22 00:00:00 15.6 11 Sudoeste 32 Sudoeste 0.4 917 0.2 95
2019-09-21 23:00:00 16.4 13 Sudoeste 32 Sudoeste 0 917 0.3 82
2019-09-21 22:00:00 16.7 17 Sudoeste 38 Sudoeste 0 916.9 0.1 82
2019-09-21 21:00:00 16.9 14 Sudoeste 34 Sudoeste 0 916.8 -0.3 80
2019-09-21 20:00:00 17.2 12 Sudoeste 30 Sudoeste 0 916.7 -0.8 81
2019-09-21 19:00:00 17.1 9 Sur 29 Sur 0 916.8 -1.3 81
2019-09-21 18:00:00 17.2 8 Sur 23 Sudoeste 0 917.1 -1.2 90
2019-09-21 17:00:00 16.4 9 Sur 42 Sudoeste 0.6 917.5 -1.1 94
2019-09-21 16:00:00 16.4 13 Sudoeste 36 Sudoeste 0.4 918.1 -0.7 93
2019-09-21 15:00:00 16.5 14 Sudoeste 36 Sudoeste 0.2 918.3 -0.5 92
2019-09-21 14:00:00 16.3 13 Sudoeste 38 Sudoeste 0 918.6 -0.3 84
2019-09-21 13:00:00 18.2 11 Sudoeste 35 Sudoeste 0 918.8 -0.1 71
2019-09-21 12:00:00 18.1 15 Sudoeste 36 Sudoeste 0 918.8 0 72
2019-09-21 11:00:00 18.3 15 Sudoeste 60 Este 0 918.9 0.3 70
2019-09-21 10:00:00 16.1 6 Sur 17 Sur 0 918.9 0.2 90
2019-09-21 09:00:00 14.8 5 Sur 16 Sudoeste 0 918.8 0 96
2019-09-21 08:00:00 14.6 2 Sur 14 Sudoeste 0 918.6 -0.4 96
2019-09-21 07:00:00 14.6 8 Sudoeste 15 Sur 0 918.7 -0.4 96
2019-09-21 06:00:00 14.8 2 Sudoeste 12 Sudoeste 0.2 918.8 -0.5 96
2019-09-21 05:00:00 15 3 Sudoeste 9 Sudoeste 0 919 -0.7 97
2019-09-21 04:00:00 15.1 3 Sur 7 Sudeste 0 919.1 -1.1 96
2019-09-21 03:00:00 15.2 4 Este 14 Este 0 919.3 -1.4 96
2019-09-21 02:00:00 15.1 4 Este 22 Este 0.2 919.7 -0.7 96
2019-09-21 01:00:00 15.5 8 Este 20 Sudeste 2.4 920.2 0 95
2019-09-21 00:00:00 16 9 Sudeste 24 Sudeste 0 920.7 0.4 92
2019-09-20 23:00:00 15.8 4 Nordeste 14 Sudeste 0.4 920.4 0.9 85
2019-09-20 22:00:00 16 7 Norte 19 Sur 1 920.2 1 82
2019-09-20 21:00:00 18.1 5 Sur 21 Sudeste 0 920.3 1.5 68
2019-09-20 20:00:00 19.7 8 Nordeste 28 Sur 0 919.5 0.5 58
2019-09-20 19:00:00 23.6 8 Sudoeste 29 Sur 0 919.2 -0.5 43
2019-09-20 18:00:00 24.8 11 Sur 33 Sur 0 918.8 -1.8 37
2019-09-20 17:00:00 26.5 11 Sur 34 Sur 0 919 -2.5 34
2019-09-20 16:00:00 26.9 9 Sur 33 Sur 0 919.7 -2.3 35
2019-09-20 15:00:00 24.8 5 Sudeste 27 Sur 0 920.6 -1.9 47
2019-09-20 14:00:00 25.1 8 Sur 19 Este 0 921.5 -1.1 47
2019-09-20 13:00:00 22.3 7 Este 15 Sudeste 0 922 -0.9 59
2019-09-20 12:00:00 20.9 8 Este 19 Nordeste 0 922.5 0.1 63
2019-09-20 11:00:00 19.6 6 Este 17 Nordeste 0 922.6 0.5 70
2019-09-20 10:00:00 15.8 3 Norte 14 Nordeste 0 922.9 0.9 89
2019-09-20 09:00:00 14.5 6 Nordeste 16 Norte 0 922.4 0.2 93
2019-09-20 08:00:00 13.7 4 Nordeste 15 Nordeste 0 922.1 -0.2 92
2019-09-20 07:00:00 14.1 5 Nordeste 13 Nordeste 0 922 -0.9 92
2019-09-20 06:00:00 14.5 5 Nordeste 19 Nordeste 0 922.2 -1 89
2019-09-20 05:00:00 14.8 5 Nordeste 15 Norte 0 922.3 -1 85
2019-09-20 04:00:00 15.3 5 Nordeste 20 Nordeste 0 922.9 -0.7 84
2019-09-20 03:00:00 15.7 8 Nordeste 16 Nordeste 0 923.2 -0.7 82
2019-09-20 02:00:00 -- -- -- -- -- -- -- -- --
2019-09-20 01:00:00 -- -- -- -- -- -- -- -- --
2019-09-20 00:00:00 -- -- -- -- -- -- -- -- --
2019-09-19 23:00:00 -- -- -- -- -- -- -- -- --
2019-09-19 22:00:00 -- -- -- -- -- -- -- -- --
2019-09-19 21:00:00 -- -- -- -- -- -- -- -- --
2019-09-19 20:00:00 -- -- -- -- -- -- -- -- --
2019-09-19 19:00:00 -- -- -- -- -- -- -- -- --
2019-09-19 18:00:00 -- -- -- -- -- -- -- -- --
2019-09-19 17:00:00 -- -- -- -- -- -- -- -- --
2019-09-19 16:00:00 -- -- -- -- -- -- -- -- --
2019-09-19 15:00:00 -- -- -- -- -- -- -- -- --
2019-09-19 14:00:00 -- -- -- -- -- -- -- -- --
2019-09-19 13:00:00 -- -- -- -- -- -- -- -- --
2019-09-19 12:00:00 -- -- -- -- -- -- -- -- --
2019-09-19 11:00:00 -- -- -- -- -- -- -- -- --
2019-09-19 10:00:00 -- -- -- -- -- -- -- -- --
2019-09-19 09:00:00 -- -- -- -- -- -- -- -- --
2019-09-19 08:00:00 -- -- -- -- -- -- -- -- --
2019-09-19 07:00:00 -- -- -- -- -- -- -- -- --
2019-09-19 06:00:00 -- -- -- -- -- -- -- -- --
2019-09-19 05:00:00 -- -- -- -- -- -- -- -- --
2019-09-19 04:00:00 -- -- -- -- -- -- -- -- --
2019-09-19 03:00:00 -- -- -- -- -- -- -- -- --
2019-09-19 02:00:00 -- -- -- -- -- -- -- -- --
2019-09-19 01:00:00 -- -- -- -- -- -- -- -- --
2019-09-19 00:00:00 -- -- -- -- -- -- -- -- --
2019-09-18 23:00:00 -- -- -- -- -- -- -- -- --
2019-09-18 22:00:00 -- -- -- -- -- -- -- -- --
2019-09-18 21:00:00 -- -- -- -- -- -- -- -- --
2019-09-18 20:00:00 -- -- -- -- -- -- -- -- --
2019-09-18 19:00:00 -- -- -- -- -- -- -- -- --
2019-09-18 18:00:00 -- -- -- -- -- -- -- -- --
2019-09-18 17:00:00 -- -- -- -- -- -- -- -- --
2019-09-18 16:00:00 -- -- -- -- -- -- -- -- --
2019-09-18 15:00:00 -- -- -- -- -- -- -- -- --
2019-09-18 14:00:00 -- -- -- -- -- -- -- -- --
2019-09-18 13:00:00 -- -- -- -- -- -- -- -- --
2019-09-18 12:00:00 -- -- -- -- -- -- -- -- --
2019-09-18 11:00:00 18.3 5 Noroeste 12 Noroeste 0 924.9 1.1 76
2019-09-18 10:00:00 16.6 4 Norte 18 Oeste 0 924.5 1.1 93
2019-09-18 09:00:00 14.1 5 Noroeste 9 Noroeste 0 924.1 1.4 98
2019-09-18 08:00:00 13.2 0 Calma 10 Sur 0 923.8 0.8 97
2019-09-18 07:00:00 13.9 5 Sur 18 Sudeste 0 923.4 -0.5 97
2019-09-18 06:00:00 14.3 2 Nordeste 21 Norte 0.2 922.7 -2.9 95
2019-09-18 05:00:00 14.6 10 Norte 29 Norte 0.4 923 -2.2 93
2019-09-18 04:00:00 14.1 13 Norte 27 Nordeste 1.2 923.9 -1.3 96
2019-09-18 03:00:00 14.6 5 Este 12 Este 0.6 925.6 0.4 96
2019-09-18 02:00:00 14.6 4 Noroeste 26 Noroeste 1 925.2 1.2 96
2019-09-18 01:00:00 14.6 11 Noroeste 28 Noroeste 12 925.2 2.3 95
2019-09-18 00:00:00 15.4 5 Norte 61 Sudoeste 2.4 925.2 2.8 86
2019-09-17 23:00:00 19.9 9 Sur 24 Nordeste 0 924 1.5 73
2019-09-17 22:00:00 20.7 8 Nordeste 19 Nordeste 0 922.9 1 68
2019-09-17 21:00:00 21.8 8 Norte 26 Norte 0 922.4 0.2 58